Etusivu
METAR-TAF:

METAR-TAF

Lentoasemat :

Montpellier, Ranska

Leveyspiiri: 43-35N, Pituuspiiri: 003-58E, korkeus merenpinnasta: 5 m

Tämänhetkinen sää

Tämä raportti tehtiin 36 minuuttia sitten, kello 03.00 UTC
Tuuli 10 kn luoteesta
Lämpötila 9°C
Kosteus 53%
Ilmanpaine 1021 hPa
Näkyvyys 10 km tai enemmän
ei pilviä alle 1500 m:ssä eikä cumulonimbus-pilviä

METAR: LFMT 190300Z AUTO 31010KT CAVOK 09/00 Q1021 NOSIG

Aika: 04:36 (03:36 UTC)

Sääennuste

Tämä raportti tehtiin 1 tunti ja 36 minuuttia sitten, kello 02.00 UTC
Ennuste voimassa 19. päivästä klo 03 UTC - 20. päivään klo 03 UTC
Tuuli 15 kn luoteesta
Näkyvyys 10 km tai enemmän
ei pilviä alle 1500 m:ssä eikä cumulonimbus-pilviä
Tulossa
19. päivästä klo 06 UTC - 19. päivään klo 08 UTC
Tuuli 15 kn pohjoisesta puuskistuen 25 kn:hen
Tulossa
19. päivästä klo 14 UTC - 19. päivään klo 15 UTC
Tuuli 10 kn pohjoisesta/koillisesta

TAF: LFMT 190200Z 1903/2003 31015KT CAVOK BECMG 1906/1908 36015G25KT BECMG 1914/1915 03010KT

Säähavainnot ja -ennusteet yli 4000 lentoasemalta (METAR- ja TAF-raportit).

Käytössä olevat sääasemat on merkitty karttaan keltaisilla ja punaisilla pisteillä.

Aseta hiiri pisteen päälle nähdäksesi sääaseman nimen.

Klikkaa sitten nähdäksesi säähavainnot ja -ennusteet.

Kartan vaihtaminen: klikkaa mustalla rastilla varustettuja vihreitä pisteitä, niin voit zoomata sisään; viivalla varustettua vihreää pistettä, niin voit zoomata ulos tai vihreitä nuolia, niin pääset viereisille kartoille.


METAR-TAF: